Time;durP1;ratioP1;P1;durP2;ratioP2;P2;SDS_P1;SDS_P2;PMS_P1;PMS_P2;Temp;Humidity;BMP_temperature;BMP_pressure;BME280_temperature;BME280_humidity;BME280_pressure;Samples;Min_cycle;Max_cycle;Signal;HPM_P1;HPM_P2
2023/08/26 00:00:24;;;;;;;;;;;;;;;20.48;90.40;95205.94;5116198;28;977;-55
2023/08/26 00:02:50;;;;;;;;;;;;;;;20.57;90.08;95202.97;5116073;28;965;-55
2023/08/26 00:05:16;;;;;;;;;;;;;;;20.65;89.32;95200.00;5116005;28;964;-55
2023/08/26 00:07:42;;;;;;;;;;;;;;;20.50;89.83;95200.28;5116214;28;1995;-55
2023/08/26 00:10:08;;;;;;;;;;;;;;;20.36;90.60;95196.03;5133908;27;1072;-55
2023/08/26 00:12:34;;;;;;;;;;;;;;;20.33;90.83;95205.44;5136429;27;1098;-55
2023/08/26 00:15:00;;;;;;;;;;;;;;;20.46;89.52;95202.63;5136522;27;944;-55
2023/08/26 00:17:26;;;;;;;;;;;;;;;20.46;89.61;95205.31;5136667;27;976;-55
2023/08/26 00:19:52;;;;;;;;;;;;;;;20.28;91.09;95200.69;5136180;27;1169;-55
2023/08/26 00:22:18;;;;;;;;;;;;;;;20.19;92.04;95202.00;5134907;27;2474;-55
2023/08/26 00:24:44;;;;;;;;;;;;;;;20.30;91.35;95203.19;5136453;27;965;-55
2023/08/26 00:27:10;;;;;;;;;;;;;;;20.45;90.26;95200.97;5136137;27;1063;-55
2023/08/26 00:29:36;;;;;;;;;;;;;;;20.41;90.47;95199.75;5136080;27;1976;-55
2023/08/26 00:32:02;;;;;;;;;;;;;;;20.44;90.48;95206.63;5136164;27;1056;-55
2023/08/26 00:34:28;;;;;;;;;;;;;;;20.44;90.85;95202.00;5135948;27;1863;-55
2023/08/26 00:36:54;;;;;;;;;;;;;;;20.39;90.73;95201.00;5136246;27;1040;-55
2023/08/26 00:39:19;;;;;;;;;;;;;;;20.35;91.33;95197.91;5135848;27;1130;-55
2023/08/26 00:41:46;;;;;;;;;;;;;;;20.46;90.17;95204.50;5136102;27;1136;-55
2023/08/26 00:44:12;;;;;;;;;;;;;;;20.47;89.78;95192.59;5135852;27;1059;-55
2023/08/26 00:46:38;;;;;;;;;;;;;;;20.40;89.97;95200.78;5135771;27;1079;-55
2023/08/26 00:49:04;;;;;;;;;;;;;;;20.33;90.67;95202.72;5135738;27;1902;-55
2023/08/26 00:51:30;;;;;;;;;;;;;;;20.34;91.00;95209.81;5135606;27;1098;-55
2023/08/26 00:53:56;;;;;;;;;;;;;;;20.38;90.82;95202.06;5135823;27;1110;-55
2023/08/26 00:56:22;;;;;;;;;;;;;;;20.40;91.24;95202.69;5135474;27;1035;-55
2023/08/26 00:58:48;;;;;;;;;;;;;;;20.38;91.19;95207.50;5135839;27;983;-55
2023/08/26 01:01:14;;;;;;;;;;;;;;;20.35;91.26;95214.19;5135793;27;983;-55
2023/08/26 01:03:40;;;;;;;;;;;;;;;20.32;90.67;95203.78;5135681;27;960;-55
2023/08/26 01:06:06;;;;;;;;;;;;;;;20.32;90.29;95205.66;5135712;27;1019;-55
2023/08/26 01:08:32;;;;;;;;;;;;;;;20.12;90.78;95201.22;5139477;27;1982;-56
2023/08/26 01:11:08;;;;;;;;;;;;;;;20.16;90.96;95197.00;5156213;27;964;-55
2023/08/26 01:13:54;;;;;;;;;;;;;;;20.21;90.52;95196.34;5155245;27;1091;-55
2023/08/26 01:16:22;;;;;;;;;;;;;;;20.06;91.67;95188.53;5141470;27;1045;-55
2023/08/26 01:18:48;;;;;;;;;;;;;;;20.10;91.29;95195.16;5137766;27;981;-55
2023/08/26 01:21:15;;;;;;;;;;;;;;;20.19;90.91;95191.13;5138221;27;1168;-55
2023/08/26 01:23:41;;;;;;;;;;;;;;;20.17;91.21;95193.25;5135084;27;1028;-55
2023/08/26 01:26:08;;;;;;;;;;;;;;;20.17;91.36;95190.53;5135030;27;1004;-55
2023/08/26 01:28:34;;;;;;;;;;;;;;;20.14;91.48;95204.53;5134882;27;1934;-55
2023/08/26 01:31:01;;;;;;;;;;;;;;;20.11;91.83;95199.56;5134976;27;1042;-55
2023/08/26 01:33:32;;;;;;;;;;;;;;;20.03;91.70;95192.50;5131433;27;2456;-55
2023/08/26 01:35:59;;;;;;;;;;;;;;;20.06;91.89;95192.06;5155774;27;1075;-55
2023/08/26 01:38:26;;;;;;;;;;;;;;;20.07;91.84;95187.44;5155627;27;1015;-55
2023/08/26 01:40:53;;;;;;;;;;;;;;;19.87;92.32;95185.72;5155439;27;1027;-55
2023/08/26 01:43:20;;;;;;;;;;;;;;;19.82;92.60;95182.00;5155646;27;1007;-56
2023/08/26 01:45:46;;;;;;;;;;;;;;;19.83;92.63;95181.78;5155721;27;995;-55
2023/08/26 01:48:12;;;;;;;;;;;;;;;20.06;91.57;95191.22;5155437;27;1902;-55
2023/08/26 01:50:38;;;;;;;;;;;;;;;19.72;92.44;95190.59;5155541;27;978;-55
2023/08/26 01:53:04;;;;;;;;;;;;;;;19.54;93.93;95190.44;5155329;27;1134;-55
2023/08/26 01:55:31;;;;;;;;;;;;;;;19.62;93.54;95180.19;5155171;27;1027;-55
2023/08/26 01:57:57;;;;;;;;;;;;;;;19.73;93.09;95194.13;5155291;27;972;-55
2023/08/26 02:00:23;;;;;;;;;;;;;;;19.85;92.21;95193.25;5155423;27;1016;-55
2023/08/26 02:02:49;;;;;;;;;;;;;;;19.93;91.50;95186.72;5155524;27;1056;-56
2023/08/26 02:05:15;;;;;;;;;;;;;;;19.69;92.86;95188.28;5155428;27;1001;-55
2023/08/26 02:07:42;;;;;;;;;;;;;;;19.62;93.18;95185.63;5155196;27;1018;-55
2023/08/26 02:10:09;;;;;;;;;;;;;;;19.69;93.08;95185.56;5150500;27;2487;-56
2023/08/26 02:12:35;;;;;;;;;;;;;;;19.74;92.57;95185.78;5154985;27;965;-55
2023/08/26 02:15:01;;;;;;;;;;;;;;;19.64;93.12;95177.28;5155309;27;1056;-56
2023/08/26 02:17:27;;;;;;;;;;;;;;;19.49;93.45;95174.84;5155175;27;973;-55
2023/08/26 02:19:53;;;;;;;;;;;;;;;19.51;93.81;95179.00;5149073;27;1144;-55
2023/08/26 02:22:19;;;;;;;;;;;;;;;19.56;93.09;95186.50;5134517;28;1237;-56
2023/08/26 02:24:45;;;;;;;;;;;;;;;19.66;93.04;95175.19;5135638;27;1044;-55
2023/08/26 02:27:12;;;;;;;;;;;;;;;19.75;92.24;95176.63;5138427;27;1028;-55
2023/08/26 02:29:38;;;;;;;;;;;;;;;19.72;92.13;95178.91;5138631;27;1913;-55
2023/08/26 02:32:04;;;;;;;;;;;;;;;19.75;91.93;95170.34;5138572;27;989;-55
2023/08/26 02:34:30;;;;;;;;;;;;;;;19.66;92.36;95176.00;5138514;27;1054;-55
2023/08/26 02:36:56;;;;;;;;;;;;;;;19.49;93.13;95175.66;5138627;27;974;-55
2023/08/26 02:39:22;;;;;;;;;;;;;;;19.45;93.35;95169.00;5138289;27;1037;-56
2023/08/26 02:41:47;;;;;;;;;;;;;;;19.44;93.50;95171.94;5138278;27;1019;-56
2023/08/26 02:44:13;;;;;;;;;;;;;;;19.46;93.55;95169.84;5138332;27;1084;-56
2023/08/26 02:46:39;;;;;;;;;;;;;;;19.49;93.23;95170.25;5138321;27;1044;-56
2023/08/26 02:49:06;;;;;;;;;;;;;;;19.48;93.38;95174.03;5138344;27;2020;-56
2023/08/26 02:51:32;;;;;;;;;;;;;;;19.45;92.70;95171.72;5137965;27;1020;-57
2023/08/26 02:53:58;;;;;;;;;;;;;;;19.41;93.15;95166.97;5138114;27;1024;-57
2023/08/26 02:56:24;;;;;;;;;;;;;;;19.35;93.37;95168.66;5137870;27;1087;-57
2023/08/26 02:58:49;;;;;;;;;;;;;;;19.15;93.88;95166.00;5137892;27;1036;-57
2023/08/26 03:01:19;;;;;;;;;;;;;;;19.13;94.17;95176.25;5138075;27;1007;-57
2023/08/26 03:03:45;;;;;;;;;;;;;;;18.94;94.79;95175.25;5137788;27;1016;-57
2023/08/26 03:06:11;;;;;;;;;;;;;;;18.89;95.24;95173.19;5137707;27;1015;-57
2023/08/26 03:08:37;;;;;;;;;;;;;;;19.01;95.02;95172.50;5137523;27;1992;-57
2023/08/26 03:11:05;;;;;;;;;;;;;;;18.93;95.84;95176.28;5137669;27;1065;-56
2023/08/26 03:13:31;;;;;;;;;;;;;;;19.00;95.78;95181.69;5137442;27;1099;-57
2023/08/26 03:16:05;;;;;;;;;;;;;;;19.33;94.05;95175.31;5137800;27;1029;-57
2023/08/26 03:18:30;;;;;;;;;;;;;;;19.32;93.83;95182.63;5137488;27;1036;-57
2023/08/26 03:21:01;;;;;;;;;;;;;;;19.29;93.82;95185.75;5137515;27;1185;-57
2023/08/26 03:23:27;;;;;;;;;;;;;;;19.21;94.76;95189.53;5137321;27;1316;-57
2023/08/26 03:25:54;;;;;;;;;;;;;;;19.22;94.66;95184.97;5137254;27;1274;-57
2023/08/26 03:28:20;;;;;;;;;;;;;;;19.17;94.42;95182.88;5137404;27;1918;-57
2023/08/26 03:30:46;;;;;;;;;;;;;;;19.05;95.27;95182.72;5137599;27;995;-57
2023/08/26 03:33:12;;;;;;;;;;;;;;;19.16;94.33;95189.38;5137435;27;1055;-57
2023/08/26 03:35:39;;;;;;;;;;;;;;;19.13;94.46;95186.25;5136906;27;1015;-57
2023/08/26 03:38:05;;;;;;;;;;;;;;;19.16;94.07;95192.09;5136951;27;1056;-57
2023/08/26 03:40:31;;;;;;;;;;;;;;;19.09;94.59;95194.81;5136969;27;1111;-57
2023/08/26 03:42:57;;;;;;;;;;;;;;;19.01;94.70;95197.75;5137262;27;983;-58
2023/08/26 03:45:23;;;;;;;;;;;;;;;18.97;94.11;95193.81;5136878;27;1032;-57
2023/08/26 03:47:49;;;;;;;;;;;;;;;19.01;94.45;95194.19;5137099;27;977;-57
2023/08/26 03:50:15;;;;;;;;;;;;;;;18.77;95.62;95192.97;5137041;27;1071;-57
2023/08/26 03:52:41;;;;;;;;;;;;;;;18.65;96.33;95192.78;5136907;27;1023;-58
2023/08/26 03:55:07;;;;;;;;;;;;;;;18.71;96.32;95200.06;5137091;27;980;-56
2023/08/26 03:57:33;;;;;;;;;;;;;;;18.85;95.67;95207.16;5136918;27;982;-56
2023/08/26 03:59:59;;;;;;;;;;;;;;;18.88;95.73;95206.75;5136731;27;1098;-57
2023/08/26 04:02:25;;;;;;;;;;;;;;;19.00;94.30;95206.09;5136935;27;1211;-58
2023/08/26 04:04:51;;;;;;;;;;;;;;;18.89;94.40;95207.56;5136646;27;1948;-58
2023/08/26 04:07:17;;;;;;;;;;;;;;;18.76;95.20;95208.38;5136600;27;992;-58
2023/08/26 04:09:43;;;;;;;;;;;;;;;18.75;95.50;95209.44;5136354;27;1990;-58
2023/08/26 04:12:09;;;;;;;;;;;;;;;18.80;95.42;95209.69;5136792;27;999;-58
2023/08/26 04:14:35;;;;;;;;;;;;;;;18.87;95.50;95212.34;5135363;27;2941;-58
2023/08/26 04:17:03;;;;;;;;;;;;;;;18.92;94.91;95207.16;5136454;27;1111;-58
2023/08/26 04:19:30;;;;;;;;;;;;;;;18.98;95.11;95210.88;5136324;27;1212;-57
2023/08/26 04:22:00;;;;;;;;;;;;;;;19.04;95.00;95210.03;5136322;27;924;-57
2023/08/26 04:24:26;;;;;;;;;;;;;;;19.19;94.54;95218.75;5136165;27;1023;-57
2023/08/26 04:26:52;;;;;;;;;;;;;;;19.44;93.22;95210.72;5136224;27;1087;-57
2023/08/26 04:29:18;;;;;;;;;;;;;;;19.54;92.92;95220.28;5136065;27;1902;-57
2023/08/26 04:31:44;;;;;;;;;;;;;;;19.57;93.28;95230.72;5136106;27;1031;-58
2023/08/26 04:34:11;;;;;;;;;;;;;;;19.73;92.54;95235.69;5136343;27;1290;-57
2023/08/26 04:36:37;;;;;;;;;;;;;;;19.84;92.71;95232.28;5135998;27;1063;-57
2023/08/26 04:39:10;;;;;;;;;;;;;;;20.40;89.80;95236.09;5135937;27;1032;-57
2023/08/26 04:41:39;;;;;;;;;;;;;;;21.00;86.56;95238.34;5135958;27;1039;-58
2023/08/26 04:44:08;;;;;;;;;;;;;;;21.53;83.88;95245.13;5136151;27;1062;-59
2023/08/26 04:46:34;;;;;;;;;;;;;;;21.77;82.93;95237.91;5135921;27;1037;-58
2023/08/26 04:49:00;;;;;;;;;;;;;;;21.77;83.16;95242.53;5134714;27;1909;-58
2023/08/26 04:51:26;;;;;;;;;;;;;;;21.78;83.35;95242.31;5135917;27;1000;-58
2023/08/26 04:53:52;;;;;;;;;;;;;;;21.79;83.39;95241.22;5135998;27;973;-58
2023/08/26 04:56:18;;;;;;;;;;;;;;;21.86;83.76;95243.88;5135866;27;1032;-58
2023/08/26 04:58:44;;;;;;;;;;;;;;;21.89;84.13;95239.84;5135880;27;1052;-57
2023/08/26 05:01:10;;;;;;;;;;;;;;;21.52;86.15;95248.06;5135819;27;1184;-57
2023/08/26 05:03:37;;;;;;;;;;;;;;;21.33;87.92;95244.47;5135625;27;1040;-57
2023/08/26 05:06:03;;;;;;;;;;;;;;;21.31;88.71;95241.16;5135367;27;1087;-57
2023/08/26 05:08:30;;;;;;;;;;;;;;;21.22;89.05;95249.59;5135374;27;1902;-57
2023/08/26 05:10:56;;;;;;;;;;;;;;;21.21;90.16;95242.50;5135644;27;1067;-57
2023/08/26 05:13:22;;;;;;;;;;;;;;;21.25;91.28;95243.72;5115373;27;2979;-57
2023/08/26 05:15:48;;;;;;;;;;;;;;;21.44;86.27;95246.47;5114691;28;1092;-57
2023/08/26 05:18:18;;;;;;;;;;;;;;;21.63;86.26;95239.97;5096801;28;957;-57
2023/08/26 05:20:44;;;;;;;;;;;;;;;21.90;86.79;95236.91;5127619;27;1139;-58
2023/08/26 05:23:11;;;;;;;;;;;;;;;21.97;84.56;95234.94;5135385;27;1059;-58
2023/08/26 05:25:37;;;;;;;;;;;;;;;22.15;86.28;95246.84;5135071;27;1106;-58
2023/08/26 05:28:04;;;;;;;;;;;;;;;22.24;84.30;95245.44;5131781;27;2481;-58
2023/08/26 05:30:30;;;;;;;;;;;;;;;22.33;81.75;95243.22;5114714;28;973;-58
2023/08/26 05:32:56;;;;;;;;;;;;;;;22.57;82.17;95242.22;5114486;28;1060;-58
2023/08/26 05:35:22;;;;;;;;;;;;;;;22.70;82.50;95246.63;5114593;28;958;-57
2023/08/26 05:37:48;;;;;;;;;;;;;;;22.74;82.91;95241.56;5114576;28;1033;-57
2023/08/26 05:40:15;;;;;;;;;;;;;;;22.60;83.09;95243.69;5114590;28;973;-58
2023/08/26 05:42:41;;;;;;;;;;;;;;;22.68;82.86;95251.50;5114411;28;1210;-58
2023/08/26 05:45:08;;;;;;;;;;;;;;;22.81;82.83;95250.47;5114483;28;978;-58
2023/08/26 05:47:34;;;;;;;;;;;;;;;22.87;82.70;95245.97;5114113;28;1107;-58
2023/08/26 05:50:00;;;;;;;;;;;;;;;22.88;82.95;95239.44;5114068;28;1989;-58
2023/08/26 05:52:26;;;;;;;;;;;;;;;22.94;82.39;95242.06;5114072;28;1016;-58
2023/08/26 05:54:52;;;;;;;;;;;;;;;22.93;82.83;95242.28;5115445;28;2473;-58
2023/08/26 05:57:18;;;;;;;;;;;;;;;22.88;82.14;95243.00;5114271;28;1003;-58
2023/08/26 05:59:44;;;;;;;;;;;;;;;23.03;82.94;95250.75;5113587;28;2886;-59
2023/08/26 06:02:11;;;;;;;;;;;;;;;23.22;81.95;95250.59;5115959;27;2814;-58
2023/08/26 06:04:37;;;;;;;;;;;;;;;23.37;79.56;95249.06;5113892;28;1127;-59
2023/08/26 06:07:03;;;;;;;;;;;;;;;23.44;81.25;95251.66;5114198;28;969;-58
2023/08/26 06:09:29;;;;;;;;;;;;;;;23.56;77.71;95247.03;5113538;28;1919;-58
2023/08/26 06:11:57;;;;;;;;;;;;;;;23.59;78.87;95242.97;5113897;28;2023;-58
2023/08/26 06:14:23;;;;;;;;;;;;;;;23.81;78.30;95243.19;5114065;28;1035;-58
2023/08/26 06:16:49;;;;;;;;;;;;;;;23.89;76.91;95248.28;5114173;28;953;-58
2023/08/26 06:19:15;;;;;;;;;;;;;;;24.09;77.37;95245.13;5114196;28;1146;-58
2023/08/26 06:21:41;;;;;;;;;;;;;;;24.22;77.26;95243.97;5134630;28;972;-58
2023/08/26 06:24:07;;;;;;;;;;;;;;;24.37;77.18;95246.19;5134506;28;1123;-58
2023/08/26 06:26:33;;;;;;;;;;;;;;;24.57;76.25;95247.63;5134228;28;1223;-58
2023/08/26 06:28:59;;;;;;;;;;;;;;;24.57;75.66;95248.47;5134232;28;1909;-58
2023/08/26 06:31:25;;;;;;;;;;;;;;;24.85;74.07;95252.22;5134242;28;1048;-58
2023/08/26 06:33:51;;;;;;;;;;;;;;;24.96;73.69;95251.31;5116008;28;1051;-59
2023/08/26 06:36:17;;;;;;;;;;;;;;;25.14;72.85;95259.25;5134142;28;1122;-58
2023/08/26 06:38:43;;;;;;;;;;;;;;;25.16;72.30;95256.28;5134418;28;999;-58
2023/08/26 06:41:09;;;;;;;;;;;;;;;25.27;71.87;95260.00;5134451;28;1045;-59
2023/08/26 06:43:36;;;;;;;;;;;;;;;25.29;72.05;95260.63;5134139;28;1036;-58
2023/08/26 06:46:03;;;;;;;;;;;;;;;25.50;72.72;95265.28;5116022;28;968;-59
2023/08/26 06:48:29;;;;;;;;;;;;;;;25.51;73.37;95261.44;5134180;28;1913;-58
2023/08/26 06:50:55;;;;;;;;;;;;;;;25.59;71.94;95262.97;5134371;28;971;-58
2023/08/26 06:53:21;;;;;;;;;;;;;;;25.71;72.15;95262.84;5134189;28;969;-58
2023/08/26 06:55:48;;;;;;;;;;;;;;;25.75;72.26;95260.41;5134020;28;1628;-58
2023/08/26 06:58:14;;;;;;;;;;;;;;;25.89;71.56;95262.50;5133892;28;1020;-58
2023/08/26 07:00:41;;;;;;;;;;;;;;;25.99;71.67;95263.75;5134060;28;960;-59
2023/08/26 07:03:08;;;;;;;;;;;;;;;26.08;69.93;95257.56;5134254;28;977;-59
2023/08/26 07:05:34;;;;;;;;;;;;;;;26.33;71.79;95255.38;5133863;28;1088;-57
2023/08/26 07:08:00;;;;;;;;;;;;;;;26.57;70.36;95258.63;5134026;28;1992;-56
2023/08/26 07:10:26;;;;;;;;;;;;;;;26.62;69.25;95256.81;5133721;27;1314;-56
2023/08/26 07:12:52;;;;;;;;;;;;;;;26.74;69.19;95251.16;5137039;27;1002;-56
2023/08/26 07:15:18;;;;;;;;;;;;;;;26.88;69.31;95259.75;5128045;27;2442;-57
2023/08/26 07:17:44;;;;;;;;;;;;;;;26.88;70.21;95252.38;5117024;28;1037;-57
2023/08/26 07:20:10;;;;;;;;;;;;;;;27.07;68.56;95252.81;5125060;27;1220;-57
2023/08/26 07:22:36;;;;;;;;;;;;;;;27.37;68.02;95254.13;5119249;27;956;-57
2023/08/26 07:25:03;;;;;;;;;;;;;;;27.56;66.90;95250.94;5137433;27;1031;-57
2023/08/26 07:27:29;;;;;;;;;;;;;;;27.69;67.24;95253.22;5137394;27;1015;-57
2023/08/26 07:29:55;;;;;;;;;;;;;;;27.76;66.71;95251.06;5137340;27;1984;-57
2023/08/26 07:32:21;;;;;;;;;;;;;;;27.83;65.89;95251.66;5137288;27;1044;-57
2023/08/26 07:34:49;;;;;;;;;;;;;;;28.04;67.29;95251.78;5137268;27;1001;-57
2023/08/26 07:37:15;;;;;;;;;;;;;;;27.96;64.62;95253.09;5137412;27;1051;-57
2023/08/26 07:39:41;;;;;;;;;;;;;;;28.13;64.67;95247.38;5137392;27;1047;-57
2023/08/26 07:42:07;;;;;;;;;;;;;;;28.33;64.62;95245.81;5119241;27;1015;-57
2023/08/26 07:44:33;;;;;;;;;;;;;;;28.34;62.84;95250.19;5137076;27;999;-57
2023/08/26 07:46:59;;;;;;;;;;;;;;;28.49;63.15;95250.22;5137080;27;1119;-57
2023/08/26 07:49:25;;;;;;;;;;;;;;;28.75;61.47;95251.13;5137113;27;1901;-57
2023/08/26 07:51:51;;;;;;;;;;;;;;;28.80;59.45;95248.41;5136997;27;1567;-57
2023/08/26 07:54:17;;;;;;;;;;;;;;;28.88;59.31;95255.28;5136821;27;1047;-57
2023/08/26 07:56:43;;;;;;;;;;;;;;;28.84;61.42;95248.69;5137036;27;1046;-57
2023/08/26 07:59:09;;;;;;;;;;;;;;;28.84;61.64;95245.94;5136733;27;1098;-57
2023/08/26 08:01:35;;;;;;;;;;;;;;;29.09;60.40;95244.28;5136864;27;976;-57
2023/08/26 08:04:01;;;;;;;;;;;;;;;29.17;60.41;95246.50;5136725;27;1052;-57
2023/08/26 08:06:27;;;;;;;;;;;;;;;29.21;59.37;95247.59;5136575;27;1048;-57
2023/08/26 08:08:53;;;;;;;;;;;;;;;29.32;60.45;95248.41;5136379;27;1909;-57
2023/08/26 08:11:19;;;;;;;;;;;;;;;29.38;57.64;95247.31;5136847;27;1053;-57
2023/08/26 08:13:45;;;;;;;;;;;;;;;29.27;57.02;95245.66;5136661;27;1011;-58
2023/08/26 08:16:11;;;;;;;;;;;;;;;29.49;59.19;95237.09;5136772;27;1272;-57
2023/08/26 08:18:37;;;;;;;;;;;;;;;29.64;58.15;95234.31;5136760;27;1400;-57
2023/08/26 08:21:04;;;;;;;;;;;;;;;29.69;56.89;95234.28;5136597;27;1162;-57
2023/08/26 08:23:30;;;;;;;;;;;;;;;29.88;57.05;95228.19;5136259;27;995;-58
2023/08/26 08:25:56;;;;;;;;;;;;;;;29.84;57.20;95229.84;5118427;27;1076;-57
2023/08/26 08:28:22;;;;;;;;;;;;;;;29.88;55.13;95225.41;5136138;27;1918;-57
2023/08/26 08:30:48;;;;;;;;;;;;;;;30.15;56.13;95228.63;5136234;27;1107;-57
2023/08/26 08:33:14;;;;;;;;;;;;;;;30.39;55.27;95218.88;5136005;27;1127;-57
2023/08/26 08:35:40;;;;;;;;;;;;;;;30.38;54.50;95218.06;5136341;27;1000;-57
2023/08/26 08:38:06;;;;;;;;;;;;;;;30.40;53.15;95213.06;5136047;27;1064;-57
2023/08/26 08:40:32;;;;;;;;;;;;;;;30.48;52.36;95212.47;5135905;27;1348;-57
2023/08/26 08:42:58;;;;;;;;;;;;;;;30.35;51.34;95218.63;5135904;27;1110;-58
2023/08/26 08:45:25;;;;;;;;;;;;;;;30.46;53.37;95214.69;5136111;27;1214;-57
2023/08/26 08:47:53;;;;;;;;;;;;;;;30.71;51.33;95210.09;5134850;27;2996;-57
2023/08/26 08:50:20;;;;;;;;;;;;;;;31.03;50.56;95211.53;5136018;27;1984;-58
2023/08/26 08:52:48;;;;;;;;;;;;;;;31.02;50.58;95212.66;5135926;27;1036;-58
2023/08/26 08:55:14;;;;;;;;;;;;;;;30.98;51.93;95206.06;5135803;27;1055;-59
2023/08/26 08:57:40;;;;;;;;;;;;;;;30.90;51.87;95215.78;5135557;27;1099;-57
2023/08/26 09:00:07;;;;;;;;;;;;;;;31.04;50.98;95210.44;5135361;27;1482;-57
2023/08/26 09:02:34;;;;;;;;;;;;;;;31.03;50.90;95197.75;5135710;27;981;-57
2023/08/26 09:05:01;;;;;;;;;;;;;;;31.03;51.27;95197.75;5135419;27;1114;-58
2023/08/26 09:07:28;;;;;;;;;;;;;;;31.21;50.91;95199.78;5135286;27;1647;-57
2023/08/26 09:09:56;;;;;;;;;;;;;;;31.21;49.75;95194.25;5135070;27;1910;-57
2023/08/26 09:12:23;;;;;;;;;;;;;;;31.30;50.77;95191.69;5133526;27;2969;-57
2023/08/26 09:14:48;;;;;;;;;;;;;;;31.09;49.89;95191.91;5135211;27;1027;-57
2023/08/26 09:17:16;;;;;;;;;;;;;;;31.14;50.56;95188.25;5135398;27;983;-57
2023/08/26 09:19:55;;;;;;;;;;;;;;;31.14;50.82;95191.00;5135299;27;1089;-57
2023/08/26 09:22:24;;;;;;;;;;;;;;;31.40;52.17;95191.59;5135291;27;989;-56
2023/08/26 09:24:57;;;;;;;;;;;;;;;31.43;50.18;95179.13;5135032;27;1035;-57
2023/08/26 09:27:24;;;;;;;;;;;;;;;31.45;49.69;95177.69;5135145;27;977;-57
2023/08/26 09:29:50;;;;;;;;;;;;;;;31.65;50.92;95173.94;5135206;27;1909;-57
2023/08/26 09:32:31;;;;;;;;;;;;;;;31.78;50.67;95179.84;5135145;27;1028;-57
2023/08/26 09:35:07;;;;;;;;;;;;;;;31.70;50.53;95170.25;5134671;27;969;-58
2023/08/26 09:37:33;;;;;;;;;;;;;;;31.62;49.98;95168.97;5134887;27;921;-57
2023/08/26 09:39:59;;;;;;;;;;;;;;;31.62;49.66;95165.41;5134863;27;975;-57
2023/08/26 09:42:26;;;;;;;;;;;;;;;31.69;48.15;95163.94;5133624;27;2484;-58
2023/08/26 09:44:55;;;;;;;;;;;;;;;31.81;51.01;95151.63;5134717;27;1091;-57
2023/08/26 09:47:21;;;;;;;;;;;;;;;31.90;49.92;95164.50;5134668;27;1040;-59
2023/08/26 09:49:50;;;;;;;;;;;;;;;31.95;49.55;95152.56;5134974;27;1997;-59
2023/08/26 09:52:16;;;;;;;;;;;;;;;31.91;49.04;95146.78;5134699;27;988;-61
2023/08/26 09:54:44;;;;;;;;;;;;;;;31.91;48.71;95144.03;5134886;27;948;-58
2023/08/26 09:57:11;;;;;;;;;;;;;;;31.94;47.36;95147.31;5134790;27;960;-59
2023/08/26 09:59:37;;;;;;;;;;;;;;;31.87;47.84;95139.38;5134604;27;1110;-59
2023/08/26 10:02:09;;;;;;;;;;;;;;;32.05;48.88;95141.38;5134684;27;1051;-58
2023/08/26 10:04:37;;;;;;;;;;;;;;;32.20;48.13;95131.22;5134822;27;1019;-58
2023/08/26 10:07:04;;;;;;;;;;;;;;;32.21;47.10;95141.16;5134781;27;965;-59
2023/08/26 10:09:36;;;;;;;;;;;;;;;32.23;48.00;95137.00;5132483;27;2574;-58
2023/08/26 10:12:04;;;;;;;;;;;;;;;32.13;47.47;95128.00;5134430;27;1056;-59
2023/08/26 10:14:32;;;;;;;;;;;;;;;32.23;48.14;95130.63;5134609;27;976;-59
2023/08/26 10:17:00;;;;;;;;;;;;;;;32.20;44.16;95134.00;5134337;28;1102;-59
2023/08/26 10:19:27;;;;;;;;;;;;;;;32.13;45.85;95130.78;5132991;28;2634;-57
2023/08/26 10:21:54;;;;;;;;;;;;;;;32.19;43.07;95135.09;5134555;28;1083;-58
2023/08/26 10:24:20;;;;;;;;;;;;;;;32.26;43.24;95125.31;5134475;28;1024;-58
2023/08/26 10:26:46;;;;;;;;;;;;;;;32.39;44.13;95122.94;5134547;28;992;-59
2023/08/26 10:29:13;;;;;;;;;;;;;;;32.51;46.05;95116.94;5134373;28;1988;-58
2023/08/26 10:31:42;;;;;;;;;;;;;;;32.55;45.79;95110.47;5134366;28;968;-60
2023/08/26 10:34:08;;;;;;;;;;;;;;;32.44;44.25;95112.59;5134279;28;961;-60
2023/08/26 10:36:34;;;;;;;;;;;;;;;32.45;44.76;95114.22;5134094;28;1039;-58
2023/08/26 10:39:00;;;;;;;;;;;;;;;32.64;43.96;95121.72;5134399;28;933;-58
2023/08/26 10:41:26;;;;;;;;;;;;;;;32.54;38.30;95127.41;5134274;28;992;-59
2023/08/26 10:43:58;;;;;;;;;;;;;;;32.61;42.32;95114.84;5134246;28;996;-59
2023/08/26 10:46:33;;;;;;;;;;;;;;;32.65;41.92;95106.75;5136749;27;1059;-59
2023/08/26 10:49:00;;;;;;;;;;;;;;;32.74;41.64;95109.66;5138036;27;1988;-59
2023/08/26 10:51:27;;;;;;;;;;;;;;;32.66;39.38;95114.75;5138304;27;1132;-59
2023/08/26 10:53:59;;;;;;;;;;;;;;;32.66;40.25;95105.63;5138056;27;1569;-59
2023/08/26 10:56:27;;;;;;;;;;;;;;;32.91;41.59;95106.31;5119746;27;921;-59
2023/08/26 10:58:59;;;;;;;;;;;;;;;32.91;41.15;95101.59;5138315;27;1199;-59
2023/08/26 11:01:25;;;;;;;;;;;;;;;32.77;36.96;95103.53;5138274;27;984;-60
2023/08/26 11:03:51;;;;;;;;;;;;;;;32.77;40.37;95095.22;5138103;27;1063;-59
2023/08/26 11:06:22;;;;;;;;;;;;;;;32.76;40.09;95088.03;5137941;27;1026;-58
2023/08/26 11:08:57;;;;;;;;;;;;;;;32.78;40.56;95089.38;5137488;27;1910;-59
2023/08/26 11:11:24;;;;;;;;;;;;;;;32.78;40.18;95092.16;5135600;27;3053;-59
2023/08/26 11:13:50;;;;;;;;;;;;;;;32.88;39.25;95091.97;5117381;28;1028;-60
2023/08/26 11:16:16;;;;;;;;;;;;;;;32.95;39.89;95090.72;5116912;28;968;-59
2023/08/26 11:18:43;;;;;;;;;;;;;;;32.90;39.77;95088.88;5117157;28;964;-58
2023/08/26 11:21:09;;;;;;;;;;;;;;;32.86;39.47;95079.56;5133308;27;1216;-58
2023/08/26 11:23:35;;;;;;;;;;;;;;;32.84;38.55;95085.38;5137767;27;1051;-57
2023/08/26 11:26:05;;;;;;;;;;;;;;;32.83;36.27;95088.47;5137681;27;972;-57
2023/08/26 11:28:31;;;;;;;;;;;;;;;32.93;38.52;95076.38;5126482;27;2433;-57
2023/08/26 11:30:57;;;;;;;;;;;;;;;33.02;36.57;95082.84;5116293;28;1056;-57
2023/08/26 11:33:23;;;;;;;;;;;;;;;33.13;38.46;95072.44;5116522;28;1245;-57
2023/08/26 11:35:49;;;;;;;;;;;;;;;33.20;39.54;95068.13;5116665;28;1035;-57
2023/08/26 11:38:16;;;;;;;;;;;;;;;33.13;38.13;95073.25;5116701;28;954;-56
2023/08/26 11:40:42;;;;;;;;;;;;;;;33.18;37.44;95067.63;5115520;28;970;-57
2023/08/26 11:43:09;;;;;;;;;;;;;;;33.25;38.59;95056.94;5116657;28;972;-57
2023/08/26 11:45:36;;;;;;;;;;;;;;;33.12;36.53;95063.28;5116251;28;1056;-57
2023/08/26 11:48:02;;;;;;;;;;;;;;;33.21;37.75;95068.94;5117707;27;2488;-57
2023/08/26 11:50:28;;;;;;;;;;;;;;;33.21;36.27;95057.88;5116401;28;1906;-57
2023/08/26 11:52:54;;;;;;;;;;;;;;;33.29;37.44;95054.38;5116184;28;1083;-57
2023/08/26 11:55:21;;;;;;;;;;;;;;;33.28;37.82;95044.44;5116335;28;1007;-58
2023/08/26 11:57:51;;;;;;;;;;;;;;;33.26;36.88;95039.19;5115504;28;1032;-57
2023/08/26 12:00:17;;;;;;;;;;;;;;;33.21;36.46;95039.28;5116172;28;969;-58
2023/08/26 12:02:47;;;;;;;;;;;;;;;33.21;36.96;95030.97;5116197;28;1049;-57
2023/08/26 12:05:17;;;;;;;;;;;;;;;33.22;37.24;95029.88;5116017;28;1197;-57
2023/08/26 12:07:44;;;;;;;;;;;;;;;33.13;37.09;95026.16;5116136;28;990;-57
2023/08/26 12:10:11;;;;;;;;;;;;;;;33.18;37.83;95017.78;5115575;28;1985;-57
2023/08/26 12:12:38;;;;;;;;;;;;;;;33.24;35.98;95022.06;5115890;28;987;-58
2023/08/26 12:15:05;;;;;;;;;;;;;;;33.28;35.00;95024.19;5097961;28;978;-57
2023/08/26 12:17:31;;;;;;;;;;;;;;;33.16;37.26;95010.88;5115922;28;996;-57
2023/08/26 12:19:57;;;;;;;;;;;;;;;33.16;37.40;95006.19;5118719;27;2960;-57
2023/08/26 12:22:23;;;;;;;;;;;;;;;33.22;36.15;95002.16;5115577;28;1088;-57
2023/08/26 12:24:50;;;;;;;;;;;;;;;33.34;36.28;95003.59;5115646;28;1059;-57
2023/08/26 12:27:16;;;;;;;;;;;;;;;33.23;36.63;95001.03;5116270;27;3037;-57
2023/08/26 12:29:41;;;;;;;;;;;;;;;33.28;35.17;94997.34;5115478;28;1910;-57
2023/08/26 12:32:07;;;;;;;;;;;;;;;33.44;35.44;94990.31;5115510;28;1033;-58
2023/08/26 12:34:33;;;;;;;;;;;;;;;33.62;35.81;94987.75;5115542;28;1024;-58
2023/08/26 12:36:59;;;;;;;;;;;;;;;33.67;34.87;94986.81;5115690;28;1001;-57
2023/08/26 12:39:25;;;;;;;;;;;;;;;33.79;35.97;94978.81;5115604;28;1000;-58
2023/08/26 12:41:52;;;;;;;;;;;;;;;33.91;38.36;94973.50;5115292;28;924;-60
2023/08/26 12:44:18;;;;;;;;;;;;;;;33.93;35.76;94976.78;5097002;28;2441;-61
2023/08/26 12:46:44;;;;;;;;;;;;;;;33.89;36.03;94972.19;5118666;27;2507;-60
2023/08/26 12:49:10;;;;;;;;;;;;;;;33.89;35.63;94974.97;5135876;27;1933;-60
2023/08/26 12:51:36;;;;;;;;;;;;;;;33.84;36.03;94968.38;5136109;27;1043;-59
2023/08/26 12:54:03;;;;;;;;;;;;;;;33.71;35.61;94968.44;5135771;27;1276;-61
2023/08/26 12:56:29;;;;;;;;;;;;;;;33.67;36.52;94957.16;5135946;27;957;-60